Wildwood, Minnesota
Current Conditions -  °F | °C
As of 3:13 AM on Wednesday 22 Oct 2014 (Local Time) from KFOZ Reporting Station
Clear Clear  
Wind Chill: 40°   Ceiling: Unl
Heat Index: 45°   Visibility: 10mi
Dew Point: 37°   Wind: 8mph
Humidity: 76%   Direction: 160°SSE
Pressure: 30.09"   Gusts: NA
Location:  47.8312°N, 94.1459°W
Report Text: KFOZ 220813Z AUTO 16007KT 10SM CLR 07/03 A3009 RMK AO2
Loading
Personal Weather Stations






























Interactive Weather Map
Tropical Storm Tracking
New forecast layout! Learn more

10-Day Weather Forecast

Advertisements
Track Severe Weather on mobile